Boistfort, Washington
Current Conditions -  °F | °C
As of 3:15 AM on Monday 20 Oct 2014 (Local Time) from KCLS Reporting Station
Overcast Overcast  
Wind Chill: 59°   Ceiling: 3900
Heat Index: 59°   Visibility: 10mi
Dew Point: 57°   Wind: 0mph
Humidity: 94%   Direction: NA
Pressure: 29.71"   Gusts: NA
Location:  46.6561°N, 122.993°W
Report Text: KCLS 201015Z AUTO 00000KT 10SM BKN039 OVC046 15/14 A2971 RMK AO2
Loading
Personal Weather Stations






























Interactive Weather Map
Tropical Storm Tracking
New forecast layout! Learn more

10-Day Weather Forecast

Advertisements
Track Severe Weather on mobile